createdAt,value
2023-05-09T00:01:05.831Z,92345.88
2023-05-09T00:03:34.284Z,92339.79
2023-05-09T00:06:02.625Z,92339.04
2023-05-09T00:08:30.771Z,92337.26
2023-05-09T00:10:58.928Z,92339.69
2023-05-09T00:13:27.305Z,92339.55
2023-05-09T00:15:57.340Z,92339.56
2023-05-09T00:18:25.517Z,92337.23
2023-05-09T00:20:53.576Z,92343.75
2023-05-09T00:23:21.672Z,92343.73
2023-05-09T00:25:49.784Z,92345.13
2023-05-09T00:28:17.877Z,92341.48
2023-05-09T00:30:45.997Z,92346.80
2023-05-09T00:33:14.183Z,92349.48
2023-05-09T00:35:42.462Z,92341.46
2023-05-09T00:38:10.614Z,92338.80
2023-05-09T00:40:39.063Z,92335.64
2023-05-09T00:43:07.634Z,92337.52
2023-05-09T00:45:35.779Z,92333.52
2023-05-09T00:48:04.359Z,92331.55
2023-05-09T00:50:32.518Z,92332.19
2023-05-09T00:53:01.050Z,92329.35
2023-05-09T00:55:29.240Z,92331.65
2023-05-09T00:57:57.389Z,92332.60
2023-05-09T01:00:25.553Z,92336.39
2023-05-09T01:02:55.229Z,92336.02
2023-05-09T01:05:27.237Z,92338.07
2023-05-09T01:08:01.631Z,92337.08
2023-05-09T01:10:48.581Z,92337.55
2023-05-09T01:13:48.990Z,92333.88
2023-05-09T01:16:24.105Z,92325.80
2023-05-09T01:19:01.314Z,92324.15
2023-05-09T01:21:30.606Z,92320.94
2023-05-09T01:24:17.331Z,92323.81
2023-05-09T01:26:53.221Z,92327.63
2023-05-09T01:29:27.250Z,92329.62
2023-05-09T01:31:56.752Z,92328.02
2023-05-09T01:34:26.897Z,92332.35
2023-05-09T01:36:58.184Z,92337.85
2023-05-09T01:39:27.613Z,92335.67
2023-05-09T01:41:57.062Z,92335.85
2023-05-09T01:44:25.713Z,92335.52
2023-05-09T01:46:56.405Z,92337.08
2023-05-09T01:49:25.371Z,92337.46
2023-05-09T01:51:54.726Z,92332.00
2023-05-09T01:54:26.324Z,92330.23
2023-05-09T01:56:55.774Z,92330.25
2023-05-09T01:59:24.027Z,92326.84
2023-05-09T02:01:53.136Z,92325.86
2023-05-09T02:04:22.201Z,92328.31
2023-05-09T02:06:51.527Z,92328.50
2023-05-09T02:09:20.324Z,92328.25
2023-05-09T02:11:48.657Z,92330.85
2023-05-09T02:14:16.748Z,92334.85
2023-05-09T02:16:44.914Z,92335.39
2023-05-09T02:19:13.051Z,92332.05
2023-05-09T02:21:41.421Z,92330.86
2023-05-09T02:24:09.691Z,92331.06
2023-05-09T02:26:38.231Z,92328.73
2023-05-09T02:29:07.545Z,92330.63
2023-05-09T02:31:36.327Z,92331.16
2023-05-09T02:34:05.646Z,92325.53
2023-05-09T02:36:35.952Z,92325.06
2023-05-09T02:39:04.231Z,92324.80
2023-05-09T02:41:32.539Z,92324.45
2023-05-09T02:44:00.645Z,92321.89
2023-05-09T02:46:28.939Z,92321.50
2023-05-09T02:48:57.087Z,92323.50
2023-05-09T02:51:25.233Z,92320.99
2023-05-09T02:53:53.333Z,92321.94
2023-05-09T02:56:21.445Z,92322.59
2023-05-09T02:58:51.515Z,92321.47
2023-05-09T03:01:19.846Z,92324.05
2023-05-09T03:03:48.037Z,92331.05
2023-05-09T03:06:16.787Z,92329.55
2023-05-09T03:08:44.870Z,92333.93
2023-05-09T03:11:13.858Z,92331.77
2023-05-09T03:13:42.643Z,92335.24
2023-05-09T03:16:13.497Z,92333.80
2023-05-09T03:18:42.537Z,92337.02
2023-05-09T03:21:10.845Z,92343.17
2023-05-09T03:23:39.652Z,92346.85
2023-05-09T03:26:07.771Z,92342.48
2023-05-09T03:28:37.860Z,92344.10
2023-05-09T03:31:06.582Z,92347.69
2023-05-09T03:33:34.921Z,92353.02
2023-05-09T03:36:03.010Z,92349.16
2023-05-09T03:38:31.087Z,92352.09
2023-05-09T03:40:59.425Z,92347.19
2023-05-09T03:43:27.682Z,92346.91
2023-05-09T03:45:56.192Z,92354.64
2023-05-09T03:48:24.673Z,92350.81
2023-05-09T03:50:52.973Z,92349.27
2023-05-09T03:53:21.551Z,92351.75
2023-05-09T03:55:49.664Z,92353.49
2023-05-09T03:58:19.476Z,92354.48
2023-05-09T04:00:48.042Z,92358.03
2023-05-09T04:03:18.428Z,92358.03
2023-05-09T04:05:48.135Z,92359.99
2023-05-09T04:08:25.376Z,92362.16
2023-05-09T04:10:53.570Z,92360.25
2023-05-09T04:13:21.908Z,92361.26
2023-05-09T04:15:50.204Z,92361.04
2023-05-09T04:18:18.470Z,92363.52
2023-05-09T04:20:46.817Z,92361.04
2023-05-09T04:23:15.503Z,92365.88
2023-05-09T04:25:43.944Z,92363.25
2023-05-09T04:28:12.068Z,92363.19
2023-05-09T04:30:40.565Z,92362.63
2023-05-09T04:33:08.763Z,92363.26
2023-05-09T04:35:36.968Z,92364.80
2023-05-09T04:38:05.134Z,92365.31
2023-05-09T04:40:33.528Z,92364.84
2023-05-09T04:43:01.907Z,92366.34
2023-05-09T04:45:32.005Z,92362.95
2023-05-09T04:48:00.926Z,92360.38
2023-05-09T04:50:30.428Z,92361.13
2023-05-09T04:52:58.472Z,92362.45
2023-05-09T04:55:26.546Z,92362.89
2023-05-09T04:57:56.387Z,92363.86
2023-05-09T05:00:25.006Z,92365.29
2023-05-09T05:02:53.187Z,92364.46
2023-05-09T05:05:24.926Z,92365.04
2023-05-09T05:07:54.390Z,92368.27
2023-05-09T05:10:28.410Z,92369.70
2023-05-09T05:13:02.901Z,92366.87
2023-05-09T05:15:31.377Z,92366.64
2023-05-09T05:17:59.667Z,92368.91
2023-05-09T05:20:30.999Z,92367.06
2023-05-09T05:22:59.948Z,92367.70
2023-05-09T05:25:28.015Z,92369.77
2023-05-09T05:27:56.667Z,92368.80
2023-05-09T05:30:24.797Z,92369.65
2023-05-09T05:32:52.973Z,92369.52
2023-05-09T05:35:23.490Z,92367.73
2023-05-09T05:37:51.787Z,92365.79
2023-05-09T05:40:21.185Z,92373.30
2023-05-09T05:42:49.691Z,92372.08
2023-05-09T05:45:17.942Z,92373.79
2023-05-09T05:47:49.181Z,92378.81
2023-05-09T05:50:18.195Z,92378.73
2023-05-09T05:52:46.344Z,92380.36
2023-05-09T05:55:16.010Z,92382.20
2023-05-09T05:57:44.541Z,92385.52
2023-05-09T06:00:15.458Z,92382.59
2023-05-09T06:02:48.542Z,92384.80
2023-05-09T06:05:22.834Z,92382.32
2023-05-09T06:07:51.610Z,92383.23
2023-05-09T06:10:21.702Z,92382.95
2023-05-09T06:12:50.072Z,92380.02
2023-05-09T06:15:18.404Z,92383.77
2023-05-09T06:17:48.020Z,92381.70
2023-05-09T06:20:16.084Z,92387.67
2023-05-09T06:22:45.140Z,92383.61
2023-05-09T06:25:13.577Z,92388.20
2023-05-09T06:27:42.157Z,92387.30
2023-05-09T06:30:24.725Z,92388.27
2023-05-09T06:32:55.669Z,92384.59
2023-05-09T06:35:23.905Z,92385.85
2023-05-09T06:37:51.962Z,92384.86
2023-05-09T06:40:20.181Z,92388.63
2023-05-09T06:42:48.315Z,92389.77
2023-05-09T06:45:17.478Z,92387.85
2023-05-09T06:47:45.970Z,92385.38
2023-05-09T06:50:14.162Z,92388.69
2023-05-09T06:52:42.238Z,92389.52
2023-05-09T06:55:10.941Z,92391.27
2023-05-09T06:57:40.686Z,92392.71
2023-05-09T07:00:10.907Z,92392.80
2023-05-09T07:02:42.426Z,92394.08
2023-05-09T07:05:11.248Z,92395.36
2023-05-09T07:07:39.507Z,92394.91
2023-05-09T07:10:11.962Z,92396.55
2023-05-09T07:12:40.946Z,92395.06
2023-05-09T07:15:09.466Z,92391.95
2023-05-09T07:17:37.594Z,92391.27
2023-05-09T07:20:06.288Z,92388.48
2023-05-09T07:22:36.955Z,92393.95
2023-05-09T07:25:08.985Z,92390.76
2023-05-09T07:27:37.439Z,92389.19
2023-05-09T07:30:06.219Z,92386.64
2023-05-09T07:32:34.386Z,92387.15
2023-05-09T07:35:03.248Z,92387.00
2023-05-09T07:37:31.867Z,92389.35
2023-05-09T07:40:00.503Z,92386.21
2023-05-09T07:42:30.398Z,92391.52
2023-05-09T07:44:59.324Z,92392.49
2023-05-09T07:47:27.426Z,92395.52
2023-05-09T07:49:55.564Z,92397.52
2023-05-09T07:52:23.693Z,92398.21
2023-05-09T07:54:51.802Z,92397.63
2023-05-09T07:57:19.903Z,92395.38
2023-05-09T07:59:47.929Z,92393.35
2023-05-09T08:02:16.146Z,92394.34
2023-05-09T08:04:44.527Z,92396.44
2023-05-09T08:07:12.659Z,92395.04
2023-05-09T08:09:40.855Z,92396.56
2023-05-09T08:12:08.931Z,92394.38
2023-05-09T08:14:36.933Z,92397.55
2023-05-09T08:17:05.020Z,92398.61
2023-05-09T08:19:33.210Z,92399.27
2023-05-09T08:22:01.420Z,92396.14
2023-05-09T08:24:29.595Z,92395.30
2023-05-09T08:26:57.655Z,92395.88
2023-05-09T08:29:25.752Z,92392.42
2023-05-09T08:31:53.879Z,92393.94
2023-05-09T08:34:22.023Z,92395.36
2023-05-09T08:36:50.221Z,92393.91
2023-05-09T08:39:19.410Z,92393.36
2023-05-09T08:41:47.638Z,92385.77
2023-05-09T08:44:15.818Z,92383.18
2023-05-09T08:46:44.667Z,92389.20
2023-05-09T08:49:12.826Z,92389.44
2023-05-09T08:51:41.105Z,92386.02
2023-05-09T08:54:09.786Z,92384.13
2023-05-09T08:56:37.910Z,92387.64
2023-05-09T08:59:06.519Z,92386.83
2023-05-09T09:01:37.877Z,92384.55
2023-05-09T09:04:06.920Z,92385.46
2023-05-09T09:06:35.520Z,92380.48
2023-05-09T09:09:09.200Z,92381.83
2023-05-09T09:11:38.871Z,92380.09
2023-05-09T09:14:15.755Z,92376.18
2023-05-09T09:16:45.156Z,92378.37
2023-05-09T09:19:16.820Z,92376.39
2023-05-09T09:21:47.308Z,92379.99
2023-05-09T09:24:19.113Z,92377.45
2023-05-09T09:26:48.411Z,92373.81
2023-05-09T09:29:17.367Z,92379.22
2023-05-09T09:31:46.514Z,92377.48
2023-05-09T09:34:21.526Z,92380.14
2023-05-09T09:36:50.378Z,92381.23
2023-05-09T09:39:18.535Z,92379.64
2023-05-09T09:41:46.609Z,92379.46
2023-05-09T09:44:18.845Z,92381.81
2023-05-09T09:46:50.890Z,92385.17
2023-05-09T09:49:20.661Z,92383.41
2023-05-09T09:51:56.237Z,92381.33
2023-05-09T09:54:27.833Z,92379.01
2023-05-09T09:56:57.170Z,92383.71
2023-05-09T09:59:26.203Z,92383.23
2023-05-09T10:02:07.679Z,92382.99
2023-05-09T10:04:37.378Z,92385.25
2023-05-09T10:07:07.416Z,92383.84
2023-05-09T10:09:38.039Z,92381.81
2023-05-09T10:12:06.954Z,92378.56
2023-05-09T10:14:36.705Z,92375.48
2023-05-09T10:17:05.722Z,92373.32
2023-05-09T10:19:36.212Z,92369.66
2023-05-09T10:22:10.177Z,92368.19
2023-05-09T10:24:44.697Z,92362.15
2023-05-09T10:27:13.393Z,92367.27
2023-05-09T10:29:46.115Z,92368.60
2023-05-09T10:32:40.542Z,92367.57
2023-05-09T10:35:10.651Z,92374.25
2023-05-09T10:37:39.055Z,92372.10
2023-05-09T10:40:08.005Z,92372.48
2023-05-09T10:42:36.278Z,92369.08
2023-05-09T10:45:04.649Z,92368.34
2023-05-09T10:47:33.381Z,92365.44
2023-05-09T10:50:02.120Z,92365.16
2023-05-09T10:52:36.043Z,92364.88
2023-05-09T10:55:05.220Z,92364.77
2023-05-09T10:57:33.436Z,92365.81
2023-05-09T11:00:01.637Z,92358.52
2023-05-09T11:02:31.379Z,92361.13
2023-05-09T11:05:16.725Z,92358.70
2023-05-09T11:07:45.170Z,92361.79
2023-05-09T11:10:20.215Z,92365.86
2023-05-09T11:12:57.728Z,92362.79
2023-05-09T11:15:27.973Z,92365.73
2023-05-09T11:18:10.719Z,92363.36
2023-05-09T11:20:46.873Z,92362.41
2023-05-09T11:23:21.930Z,92367.70
2023-05-09T11:25:50.086Z,92365.24
2023-05-09T11:28:28.445Z,92365.48
2023-05-09T11:31:12.952Z,92368.23
2023-05-09T11:33:42.257Z,92370.31
2023-05-09T11:36:20.584Z,92370.16
2023-05-09T11:38:48.776Z,92365.73
2023-05-09T11:41:17.556Z,92372.56
2023-05-09T11:43:45.770Z,92365.98
2023-05-09T11:46:13.983Z,92367.93
2023-05-09T11:48:42.400Z,92364.16
2023-05-09T11:51:18.353Z,92359.52
2023-05-09T11:53:49.828Z,92354.51
2023-05-09T11:56:18.149Z,92353.67
2023-05-09T11:58:46.949Z,92349.48
2023-05-09T12:01:15.105Z,92351.27
2023-05-09T12:03:46.206Z,92343.09
2023-05-09T12:06:15.531Z,92346.79
2023-05-09T12:08:44.255Z,92347.73
2023-05-09T12:11:12.836Z,92346.78
2023-05-09T12:13:50.951Z,92349.79
2023-05-09T12:16:20.002Z,92344.30
2023-05-09T12:18:52.718Z,92346.42
2023-05-09T12:21:21.918Z,92346.72
2023-05-09T12:23:51.662Z,92342.05
2023-05-09T12:26:22.256Z,92345.83
2023-05-09T12:28:50.856Z,92337.13
2023-05-09T12:31:19.319Z,92340.96
2023-05-09T12:33:47.465Z,92340.35
2023-05-09T12:36:16.349Z,92337.66
2023-05-09T12:38:54.466Z,92338.16
2023-05-09T12:41:36.987Z,92336.52
2023-05-09T12:44:07.899Z,92338.55
2023-05-09T12:46:37.534Z,92337.35
2023-05-09T12:49:06.026Z,92335.73
2023-05-09T12:51:34.288Z,92332.48
2023-05-09T12:54:05.430Z,92328.32
2023-05-09T12:56:34.042Z,92328.73
2023-05-09T12:59:02.117Z,92322.45
2023-05-09T13:01:30.383Z,92324.25
2023-05-09T13:04:02.875Z,92318.16
2023-05-09T13:06:31.265Z,92316.02
2023-05-09T13:09:00.555Z,92320.65
2023-05-09T13:11:29.334Z,92316.63
2023-05-09T13:13:57.853Z,92316.62
2023-05-09T13:16:25.992Z,92316.95
2023-05-09T13:18:54.164Z,92312.61
2023-05-09T13:21:22.225Z,92313.13
2023-05-09T13:23:51.329Z,92315.06
2023-05-09T13:26:19.533Z,92311.04
2023-05-09T13:28:47.696Z,92312.65
2023-05-09T13:31:15.973Z,92312.44
2023-05-09T13:33:44.230Z,92309.59
2023-05-09T13:36:12.242Z,92306.70
2023-05-09T13:38:40.968Z,92302.88
2023-05-09T13:41:09.913Z,92303.48
2023-05-09T13:43:39.681Z,92300.98
2023-05-09T13:46:07.873Z,92298.27
2023-05-09T13:48:36.028Z,92296.86
2023-05-09T13:51:06.381Z,92294.67
2023-05-09T13:53:35.778Z,92294.20
2023-05-09T13:56:06.482Z,92292.54
2023-05-09T13:58:34.596Z,92284.52
2023-05-09T14:01:02.945Z,92285.72
2023-05-09T14:03:31.999Z,92283.02
2023-05-09T14:06:00.174Z,92283.77
2023-05-09T14:08:28.319Z,92281.32
2023-05-09T14:10:56.525Z,92284.36
2023-05-09T14:13:25.376Z,92281.39
2023-05-09T14:15:53.865Z,92283.64
2023-05-09T14:18:21.907Z,92279.15
2023-05-09T14:20:50.373Z,92277.47
2023-05-09T14:23:18.943Z,92282.12
2023-05-09T14:25:47.064Z,92279.63
2023-05-09T14:28:15.242Z,92277.81
2023-05-09T14:30:43.854Z,92279.58
2023-05-09T14:33:12.039Z,92279.33
2023-05-09T14:35:41.621Z,92281.63
2023-05-09T14:38:10.105Z,92277.48
2023-05-09T14:40:38.220Z,92275.70
2023-05-09T14:43:06.360Z,92276.23
2023-05-09T14:45:34.479Z,92278.46
2023-05-09T14:48:03.689Z,92272.39
2023-05-09T14:50:31.887Z,92269.73
2023-05-09T14:53:01.085Z,92269.77
2023-05-09T14:55:31.353Z,92270.59
2023-05-09T14:57:59.644Z,92264.88
2023-05-09T15:00:28.846Z,92265.24
2023-05-09T15:02:57.928Z,92263.57
2023-05-09T15:05:26.200Z,92264.08
2023-05-09T15:07:54.271Z,92261.09
2023-05-09T15:10:22.440Z,92262.27
2023-05-09T15:12:50.642Z,92262.84
2023-05-09T15:15:20.109Z,92257.08
2023-05-09T15:17:48.276Z,92260.33
2023-05-09T15:20:19.988Z,92262.61
2023-05-09T15:22:49.778Z,92265.38
2023-05-09T15:25:18.117Z,92264.92
2023-05-09T15:27:46.268Z,92262.55
2023-05-09T15:30:14.726Z,92260.50
2023-05-09T15:32:43.250Z,92259.27
2023-05-09T15:35:11.437Z,92261.39
2023-05-09T15:37:40.587Z,92257.07
2023-05-09T15:40:09.341Z,92252.81
2023-05-09T15:42:37.786Z,92254.64
2023-05-09T15:45:06.659Z,92255.82
2023-05-09T15:47:34.942Z,92260.67
2023-05-09T15:50:03.326Z,92262.33
2023-05-09T15:52:31.565Z,92259.04
2023-05-09T15:54:59.836Z,92260.11
2023-05-09T15:57:28.002Z,92263.52
2023-05-09T15:59:56.184Z,92270.25
2023-05-09T16:02:24.908Z,92272.58
2023-05-09T16:04:53.214Z,92272.18
2023-05-09T16:07:21.297Z,92276.77
2023-05-09T16:09:49.475Z,92279.80
2023-05-09T16:12:17.641Z,92282.16
2023-05-09T16:14:45.691Z,92281.60
2023-05-09T16:17:13.797Z,92288.46
2023-05-09T16:19:42.513Z,92291.58
2023-05-09T16:22:10.656Z,92293.98
2023-05-09T16:24:38.711Z,92297.88
2023-05-09T16:27:06.898Z,92294.27
2023-05-09T16:29:35.086Z,92288.84
2023-05-09T16:32:03.354Z,92286.43
2023-05-09T16:34:31.953Z,92283.42
2023-05-09T16:37:00.605Z,92280.79
2023-05-09T16:39:28.801Z,92281.91
2023-05-09T16:41:57.387Z,92278.67
2023-05-09T16:44:25.958Z,92277.10
2023-05-09T16:46:54.040Z,92276.64
2023-05-09T16:49:22.144Z,92274.59
2023-05-09T16:51:50.391Z,92272.34
2023-05-09T16:54:18.545Z,92272.92
2023-05-09T16:56:46.630Z,92271.34
2023-05-09T16:59:14.736Z,92270.05
2023-05-09T17:01:43.438Z,92269.66
2023-05-09T17:04:11.557Z,92269.94
2023-05-09T17:06:40.231Z,92271.66
2023-05-09T17:09:08.545Z,92270.29
2023-05-09T17:11:36.751Z,92270.79
2023-05-09T17:14:04.837Z,92269.17
2023-05-09T17:16:33.427Z,92267.95
2023-05-09T17:19:02.395Z,92268.50
2023-05-09T17:21:30.926Z,92268.56
2023-05-09T17:23:59.085Z,92263.95
2023-05-09T17:26:27.247Z,92269.85
2023-05-09T17:28:55.476Z,92267.91
2023-05-09T17:31:23.833Z,92264.64
2023-05-09T17:33:51.997Z,92261.95
2023-05-09T17:36:20.100Z,92263.95
2023-05-09T17:38:48.164Z,92265.36
2023-05-09T17:41:16.283Z,92265.49
2023-05-09T17:43:44.510Z,92265.96
2023-05-09T17:46:14.864Z,92265.28
2023-05-09T17:48:43.135Z,92265.23
2023-05-09T17:51:11.445Z,92267.12
2023-05-09T17:53:39.640Z,92269.73
2023-05-09T17:56:08.408Z,92274.33
2023-05-09T17:58:36.763Z,92275.02
2023-05-09T18:01:05.579Z,92278.23
2023-05-09T18:03:34.100Z,92281.09
2023-05-09T18:06:02.300Z,92281.09
2023-05-09T18:08:30.454Z,92284.36
2023-05-09T18:10:58.625Z,92285.79
2023-05-09T18:13:26.935Z,92292.46
2023-05-09T18:16:00.745Z,92288.84
2023-05-09T18:18:29.270Z,92293.45
2023-05-09T18:20:57.601Z,92290.36
2023-05-09T18:23:26.180Z,92289.76
2023-05-09T18:25:54.615Z,92283.52
2023-05-09T18:28:26.056Z,92284.23
2023-05-09T18:30:54.763Z,92282.36
2023-05-09T18:33:23.532Z,92285.20
2023-05-09T18:35:53.185Z,92284.80
2023-05-09T18:38:21.820Z,92289.04
2023-05-09T18:40:52.272Z,92287.02
2023-05-09T18:43:21.671Z,92289.00
2023-05-09T18:45:50.207Z,92293.56
2023-05-09T18:48:18.352Z,92292.13
2023-05-09T18:50:47.350Z,92294.51
2023-05-09T18:53:15.562Z,92294.48
2023-05-09T18:55:43.906Z,92295.20
2023-05-09T18:58:12.551Z,92297.59
2023-05-09T19:00:40.760Z,92298.23
2023-05-09T19:03:08.926Z,92301.18
2023-05-09T19:05:37.142Z,92303.29
2023-05-09T19:08:05.464Z,92305.40
2023-05-09T19:10:35.936Z,92297.29
2023-05-09T19:13:04.744Z,92298.44
2023-05-09T19:15:33.518Z,92293.83
2023-05-09T19:18:02.126Z,92293.85
2023-05-09T19:20:30.798Z,92296.63
2023-05-09T19:22:59.354Z,92294.89
2023-05-09T19:25:27.862Z,92292.27
2023-05-09T19:27:56.244Z,92296.20
2023-05-09T19:30:24.394Z,92293.71
2023-05-09T19:32:52.808Z,92292.40
2023-05-09T19:35:21.054Z,92289.61
2023-05-09T19:37:49.056Z,92288.89
2023-05-09T19:40:17.400Z,92288.75
2023-05-09T19:42:45.720Z,92286.83
2023-05-09T19:45:14.442Z,92284.77
2023-05-09T19:47:42.837Z,92290.32
2023-05-09T19:50:11.143Z,92290.03
2023-05-09T19:52:39.347Z,92287.73
2023-05-09T19:55:07.699Z,92287.91
2023-05-09T19:57:35.878Z,92286.81
2023-05-09T20:00:06.525Z,92285.88
2023-05-09T20:02:34.961Z,92284.34
2023-05-09T20:05:03.751Z,92285.50
2023-05-09T20:07:32.013Z,92285.02
2023-05-09T20:10:00.034Z,92284.36
2023-05-09T20:12:30.068Z,92280.85
2023-05-09T20:14:58.446Z,92282.41
2023-05-09T20:17:26.680Z,92280.90
2023-05-09T20:19:54.722Z,92278.46
2023-05-09T20:22:22.887Z,92276.27
2023-05-09T20:24:51.233Z,92276.39
2023-05-09T20:27:19.291Z,92280.03
2023-05-09T20:29:47.554Z,92280.36
2023-05-09T20:32:15.812Z,92276.59
2023-05-09T20:34:43.888Z,92276.77
2023-05-09T20:37:12.066Z,92277.25
2023-05-09T20:39:40.128Z,92275.70
2023-05-09T20:42:08.198Z,92272.80
2023-05-09T20:44:37.715Z,92268.17
2023-05-09T20:47:06.038Z,92266.23
2023-05-09T20:49:34.248Z,92270.41
2023-05-09T20:52:02.326Z,92271.89
2023-05-09T20:54:31.112Z,92269.86
2023-05-09T20:56:59.238Z,92267.01
2023-05-09T20:59:27.397Z,92266.70
2023-05-09T21:01:58.261Z,92265.73
2023-05-09T21:04:26.448Z,92263.73
2023-05-09T21:06:54.520Z,92265.37
2023-05-09T21:09:22.569Z,92265.66
2023-05-09T21:11:50.691Z,92267.21
2023-05-09T21:14:18.821Z,92265.19
2023-05-09T21:16:47.019Z,92266.00
2023-05-09T21:19:15.156Z,92267.02
2023-05-09T21:21:43.266Z,92266.94
2023-05-09T21:24:11.390Z,92264.77
2023-05-09T21:26:39.499Z,92262.42
2023-05-09T21:29:07.758Z,92268.13
2023-05-09T21:31:35.913Z,92269.17
2023-05-09T21:34:09.861Z,92268.21
2023-05-09T21:36:38.685Z,92266.54
2023-05-09T21:39:09.613Z,92264.95
2023-05-09T21:41:38.614Z,92267.17
2023-05-09T21:44:11.427Z,92266.21
2023-05-09T21:46:39.614Z,92267.94
2023-05-09T21:49:07.747Z,92259.81
2023-05-09T21:51:35.749Z,92258.39
2023-05-09T21:54:04.012Z,92259.13
2023-05-09T21:56:32.081Z,92258.56
2023-05-09T21:59:00.148Z,92259.04
2023-05-09T22:01:28.352Z,92256.83
2023-05-09T22:03:56.538Z,92256.60
2023-05-09T22:06:24.739Z,92258.41
2023-05-09T22:08:52.899Z,92257.42
2023-05-09T22:11:22.291Z,92258.22
2023-05-09T22:13:50.697Z,92254.39
2023-05-09T22:16:18.747Z,92259.73
2023-05-09T22:18:46.823Z,92257.24
2023-05-09T22:21:14.983Z,92252.55
2023-05-09T22:23:43.761Z,92251.20
2023-05-09T22:26:11.929Z,92248.41
2023-05-09T22:28:40.100Z,92243.36
2023-05-09T22:31:08.222Z,92239.42
2023-05-09T22:33:36.433Z,92236.48
2023-05-09T22:36:04.928Z,92235.65
2023-05-09T22:38:33.158Z,92232.88
2023-05-09T22:41:01.199Z,92228.48
2023-05-09T22:43:36.794Z,92225.80
2023-05-09T22:46:07.546Z,92222.86
2023-05-09T22:48:35.767Z,92219.11
2023-05-09T22:51:03.895Z,92217.91
2023-05-09T22:53:32.917Z,92216.11
2023-05-09T22:56:00.970Z,92213.21
2023-05-09T22:58:29.009Z,92217.11
2023-05-09T23:00:57.200Z,92216.41
2023-05-09T23:03:25.511Z,92210.23
2023-05-09T23:05:53.646Z,92205.78
2023-05-09T23:08:21.674Z,92204.34
2023-05-09T23:10:49.744Z,92202.70
2023-05-09T23:13:17.888Z,92202.30
2023-05-09T23:15:47.098Z,92198.65
2023-05-09T23:18:15.197Z,92191.63
2023-05-09T23:20:44.646Z,92191.52
2023-05-09T23:23:12.646Z,92189.45
2023-05-09T23:25:40.889Z,92186.64
2023-05-09T23:28:08.966Z,92185.45
2023-05-09T23:30:37.119Z,92185.20
2023-05-09T23:33:05.314Z,92184.22
2023-05-09T23:35:33.531Z,92180.27
2023-05-09T23:38:01.776Z,92182.81
2023-05-09T23:40:29.901Z,92181.13
2023-05-09T23:42:58.066Z,92178.36
2023-05-09T23:45:26.343Z,92180.20
2023-05-09T23:47:54.465Z,92172.00
2023-05-09T23:50:22.806Z,92175.35
2023-05-09T23:52:51.285Z,92173.92
2023-05-09T23:55:19.472Z,92170.67
2023-05-09T23:57:47.624Z,92171.94
